sensor_id;sensor_type;location;lat;lon;timestamp;P1;durP1;ratioP1;P2;durP2;ratioP2
50249;SDS011;36133;42.522;27.456;2022-09-09T00:07:00;12.43;;;6.07;;
50249;SDS011;36133;42.522;27.456;2022-09-09T00:12:09;13.10;;;5.95;;
50249;SDS011;36133;42.522;27.456;2022-09-09T00:20:33;10.35;;;5.93;;
50249;SDS011;36133;42.522;27.456;2022-09-09T00:23:12;9.68;;;6.20;;
50249;SDS011;36133;42.522;27.456;2022-09-09T00:25:57;9.18;;;5.88;;
50249;SDS011;36133;42.522;27.456;2022-09-09T00:28:40;15.95;;;5.85;;
50249;SDS011;36133;42.522;27.456;2022-09-09T00:31:28;8.68;;;6.47;;
50249;SDS011;36133;42.522;27.456;2022-09-09T00:33:58;8.65;;;6.53;;
50249;SDS011;36133;42.522;27.456;2022-09-09T00:36:52;10.75;;;5.78;;
50249;SDS011;36133;42.522;27.456;2022-09-09T00:39:27;10.52;;;7.05;;
50249;SDS011;36133;42.522;27.456;2022-09-09T00:42:08;10.63;;;6.47;;
50249;SDS011;36133;42.522;27.456;2022-09-09T00:44:58;9.85;;;6.45;;
50249;SDS011;36133;42.522;27.456;2022-09-09T00:50:22;10.35;;;6.30;;
50249;SDS011;36133;42.522;27.456;2022-09-09T00:58:27;10.25;;;7.80;;
50249;SDS011;36133;42.522;27.456;2022-09-09T01:00:56;11.05;;;7.07;;
50249;SDS011;36133;42.522;27.456;2022-09-09T01:11:43;7.95;;;6.82;;
50249;SDS011;36133;42.522;27.456;2022-09-09T01:17:20;9.55;;;7.18;;
50249;SDS011;36133;42.522;27.456;2022-09-09T01:28:43;8.47;;;7.27;;
50249;SDS011;36133;42.522;27.456;2022-09-09T01:31:11;10.30;;;7.88;;
50249;SDS011;36133;42.522;27.456;2022-09-09T01:33:42;8.63;;;7.18;;
50249;SDS011;36133;42.522;27.456;2022-09-09T01:36:10;15.98;;;8.35;;
50249;SDS011;36133;42.522;27.456;2022-09-09T01:38:49;13.98;;;8.48;;
50249;SDS011;36133;42.522;27.456;2022-09-09T01:41:14;11.90;;;7.82;;
50249;SDS011;36133;42.522;27.456;2022-09-09T01:43:40;9.23;;;7.35;;
50249;SDS011;36133;42.522;27.456;2022-09-09T01:46:06;12.07;;;7.88;;
50249;SDS011;36133;42.522;27.456;2022-09-09T01:48:31;13.30;;;7.22;;
50249;SDS011;36133;42.522;27.456;2022-09-09T01:50:58;13.90;;;7.60;;
50249;SDS011;36133;42.522;27.456;2022-09-09T01:53:23;8.55;;;6.93;;
50249;SDS011;36133;42.522;27.456;2022-09-09T01:59:08;10.23;;;6.90;;
50249;SDS011;36133;42.522;27.456;2022-09-09T02:04:54;12.98;;;6.57;;
50249;SDS011;36133;42.522;27.456;2022-09-09T02:10:02;13.27;;;7.03;;
50249;SDS011;36133;42.522;27.456;2022-09-09T02:12:36;8.95;;;7.03;;
50249;SDS011;36133;42.522;27.456;2022-09-09T02:18:15;13.35;;;7.38;;
50249;SDS011;36133;42.522;27.456;2022-09-09T02:20:48;15.50;;;7.90;;
50249;SDS011;36133;42.522;27.456;2022-09-09T02:23:16;15.80;;;7.55;;
50249;SDS011;36133;42.522;27.456;2022-09-09T02:25:45;9.85;;;6.88;;
50249;SDS011;36133;42.522;27.456;2022-09-09T02:28:13;11.50;;;7.20;;
50249;SDS011;36133;42.522;27.456;2022-09-09T02:30:42;10.77;;;7.38;;
50249;SDS011;36133;42.522;27.456;2022-09-09T02:33:12;16.15;;;8.68;;
50249;SDS011;36133;42.522;27.456;2022-09-09T02:35:39;13.80;;;7.43;;
50249;SDS011;36133;42.522;27.456;2022-09-09T02:38:09;11.63;;;7.80;;
50249;SDS011;36133;42.522;27.456;2022-09-09T02:40:38;10.00;;;7.00;;
50249;SDS011;36133;42.522;27.456;2022-09-09T02:43:04;9.98;;;7.18;;
50249;SDS011;36133;42.522;27.456;2022-09-09T02:46:14;9.93;;;6.82;;
50249;SDS011;36133;42.522;27.456;2022-09-09T02:48:32;10.25;;;7.00;;
50249;SDS011;36133;42.522;27.456;2022-09-09T02:56:52;12.60;;;7.35;;
50249;SDS011;36133;42.522;27.456;2022-09-09T02:59:19;10.25;;;7.03;;
50249;SDS011;36133;42.522;27.456;2022-09-09T03:01:46;13.57;;;7.97;;
50249;SDS011;36133;42.522;27.456;2022-09-09T03:04:12;15.48;;;7.00;;
50249;SDS011;36133;42.522;27.456;2022-09-09T03:06:38;12.73;;;7.05;;
50249;SDS011;36133;42.522;27.456;2022-09-09T03:09:03;17.77;;;7.63;;
50249;SDS011;36133;42.522;27.456;2022-09-09T03:11:29;8.05;;;6.63;;
50249;SDS011;36133;42.522;27.456;2022-09-09T03:13:54;14.25;;;6.55;;
50249;SDS011;36133;42.522;27.456;2022-09-09T03:16:21;9.80;;;6.05;;
50249;SDS011;36133;42.522;27.456;2022-09-09T03:18:47;8.40;;;5.88;;
50249;SDS011;36133;42.522;27.456;2022-09-09T03:21:13;12.00;;;6.40;;
50249;SDS011;36133;42.522;27.456;2022-09-09T03:23:39;8.82;;;6.30;;
50249;SDS011;36133;42.522;27.456;2022-09-09T03:26:05;12.68;;;6.55;;
50249;SDS011;36133;42.522;27.456;2022-09-09T03:28:30;13.05;;;6.88;;
50249;SDS011;36133;42.522;27.456;2022-09-09T03:31:00;7.38;;;6.15;;
50249;SDS011;36133;42.522;27.456;2022-09-09T03:33:26;11.57;;;6.97;;
50249;SDS011;36133;42.522;27.456;2022-09-09T03:35:52;9.63;;;6.68;;
50249;SDS011;36133;42.522;27.456;2022-09-09T03:38:18;11.30;;;7.22;;
50249;SDS011;36133;42.522;27.456;2022-09-09T03:40:52;11.98;;;7.43;;
50249;SDS011;36133;42.522;27.456;2022-09-09T03:43:23;10.43;;;7.18;;
50249;SDS011;36133;42.522;27.456;2022-09-09T03:45:50;10.25;;;6.43;;
50249;SDS011;36133;42.522;27.456;2022-09-09T03:48:16;8.55;;;6.40;;
50249;SDS011;36133;42.522;27.456;2022-09-09T03:50:46;9.38;;;7.35;;
50249;SDS011;36133;42.522;27.456;2022-09-09T03:53:13;12.27;;;6.85;;
50249;SDS011;36133;42.522;27.456;2022-09-09T03:55:43;8.38;;;6.45;;
50249;SDS011;36133;42.522;27.456;2022-09-09T03:58:10;8.93;;;6.32;;
50249;SDS011;36133;42.522;27.456;2022-09-09T04:00:36;9.23;;;7.00;;
50249;SDS011;36133;42.522;27.456;2022-09-09T04:03:09;15.25;;;7.95;;
50249;SDS011;36133;42.522;27.456;2022-09-09T04:05:35;12.18;;;8.02;;
50249;SDS011;36133;42.522;27.456;2022-09-09T04:08:04;16.33;;;7.43;;
50249;SDS011;36133;42.522;27.456;2022-09-09T04:10:33;13.13;;;9.80;;
50249;SDS011;36133;42.522;27.456;2022-09-09T04:13:01;18.90;;;11.52;;
50249;SDS011;36133;42.522;27.456;2022-09-09T04:15:27;13.07;;;9.48;;
50249;SDS011;36133;42.522;27.456;2022-09-09T04:17:53;10.90;;;7.45;;
50249;SDS011;36133;42.522;27.456;2022-09-09T04:20:18;12.43;;;7.25;;
50249;SDS011;36133;42.522;27.456;2022-09-09T04:22:44;13.68;;;7.18;;
50249;SDS011;36133;42.522;27.456;2022-09-09T04:25:10;11.85;;;6.70;;
50249;SDS011;36133;42.522;27.456;2022-09-09T04:27:35;11.98;;;6.50;;
50249;SDS011;36133;42.522;27.456;2022-09-09T04:30:01;9.48;;;6.32;;
50249;SDS011;36133;42.522;27.456;2022-09-09T04:32:26;10.85;;;6.22;;
50249;SDS011;36133;42.522;27.456;2022-09-09T04:34:52;11.93;;;6.75;;
50249;SDS011;36133;42.522;27.456;2022-09-09T04:37:18;9.35;;;6.43;;
50249;SDS011;36133;42.522;27.456;2022-09-09T04:39:43;8.38;;;6.18;;
50249;SDS011;36133;42.522;27.456;2022-09-09T04:42:10;10.63;;;6.35;;
50249;SDS011;36133;42.522;27.456;2022-09-09T04:44:36;9.80;;;6.00;;
50249;SDS011;36133;42.522;27.456;2022-09-09T04:47:01;9.48;;;6.40;;
50249;SDS011;36133;42.522;27.456;2022-09-09T04:49:27;9.48;;;6.28;;
50249;SDS011;36133;42.522;27.456;2022-09-09T04:51:53;11.18;;;7.10;;
50249;SDS011;36133;42.522;27.456;2022-09-09T04:54:18;10.32;;;6.80;;
50249;SDS011;36133;42.522;27.456;2022-09-09T04:56:44;10.57;;;6.47;;
50249;SDS011;36133;42.522;27.456;2022-09-09T04:59:09;8.10;;;6.03;;
50249;SDS011;36133;42.522;27.456;2022-09-09T05:01:35;9.63;;;6.35;;
50249;SDS011;36133;42.522;27.456;2022-09-09T05:04:01;11.82;;;6.13;;
50249;SDS011;36133;42.522;27.456;2022-09-09T05:06:27;10.63;;;6.28;;
50249;SDS011;36133;42.522;27.456;2022-09-09T05:08:56;10.98;;;5.80;;
50249;SDS011;36133;42.522;27.456;2022-09-09T05:11:24;8.18;;;5.20;;
50249;SDS011;36133;42.522;27.456;2022-09-09T05:13:54;10.45;;;5.35;;
50249;SDS011;36133;42.522;27.456;2022-09-09T05:16:20;11.77;;;5.35;;
50249;SDS011;36133;42.522;27.456;2022-09-09T05:18:46;10.38;;;5.43;;
50249;SDS011;36133;42.522;27.456;2022-09-09T05:21:12;8.00;;;4.45;;
50249;SDS011;36133;42.522;27.456;2022-09-09T05:23:39;7.85;;;4.95;;
50249;SDS011;36133;42.522;27.456;2022-09-09T05:26:05;10.65;;;4.55;;
50249;SDS011;36133;42.522;27.456;2022-09-09T05:28:34;20.90;;;5.97;;
50249;SDS011;36133;42.522;27.456;2022-09-09T05:31:04;14.43;;;6.45;;
50249;SDS011;36133;42.522;27.456;2022-09-09T05:33:33;8.73;;;4.88;;
50249;SDS011;36133;42.522;27.456;2022-09-09T05:36:00;9.70;;;5.20;;
50249;SDS011;36133;42.522;27.456;2022-09-09T05:38:29;12.35;;;5.95;;
50249;SDS011;36133;42.522;27.456;2022-09-09T05:40:55;14.13;;;7.35;;
50249;SDS011;36133;42.522;27.456;2022-09-09T05:43:23;15.02;;;8.27;;
50249;SDS011;36133;42.522;27.456;2022-09-09T05:46:10;30.90;;;22.25;;
50249;SDS011;36133;42.522;27.456;2022-09-09T05:48:37;31.92;;;18.88;;
50249;SDS011;36133;42.522;27.456;2022-09-09T05:51:05;14.07;;;6.57;;
50249;SDS011;36133;42.522;27.456;2022-09-09T05:53:31;9.30;;;5.82;;
50249;SDS011;36133;42.522;27.456;2022-09-09T05:56:00;11.75;;;4.88;;
50249;SDS011;36133;42.522;27.456;2022-09-09T05:58:35;10.60;;;5.25;;
50249;SDS011;36133;42.522;27.456;2022-09-09T06:01:02;7.68;;;3.78;;
50249;SDS011;36133;42.522;27.456;2022-09-09T06:03:34;6.47;;;4.03;;
50249;SDS011;36133;42.522;27.456;2022-09-09T06:06:01;10.27;;;4.22;;
50249;SDS011;36133;42.522;27.456;2022-09-09T06:08:35;8.05;;;4.13;;
50249;SDS011;36133;42.522;27.456;2022-09-09T06:11:07;8.95;;;4.60;;
50249;SDS011;36133;42.522;27.456;2022-09-09T06:13:35;12.02;;;4.95;;
50249;SDS011;36133;42.522;27.456;2022-09-09T06:16:10;7.75;;;4.65;;
50249;SDS011;36133;42.522;27.456;2022-09-09T06:18:38;6.75;;;4.75;;
50249;SDS011;36133;42.522;27.456;2022-09-09T06:21:20;14.30;;;5.13;;
50249;SDS011;36133;42.522;27.456;2022-09-09T06:23:48;12.77;;;4.93;;
50249;SDS011;36133;42.522;27.456;2022-09-09T06:26:15;8.32;;;4.40;;
50249;SDS011;36133;42.522;27.456;2022-09-09T06:28:43;6.88;;;4.25;;
50249;SDS011;36133;42.522;27.456;2022-09-09T06:31:11;7.50;;;4.25;;
50249;SDS011;36133;42.522;27.456;2022-09-09T06:33:38;9.15;;;4.10;;
50249;SDS011;36133;42.522;27.456;2022-09-09T06:38:43;9.48;;;3.85;;
50249;SDS011;36133;42.522;27.456;2022-09-09T06:41:09;4.78;;;3.38;;
50249;SDS011;36133;42.522;27.456;2022-09-09T06:43:36;5.97;;;4.07;;
50249;SDS011;36133;42.522;27.456;2022-09-09T06:46:03;10.55;;;5.03;;
50249;SDS011;36133;42.522;27.456;2022-09-09T06:48:30;10.45;;;5.15;;
50249;SDS011;36133;42.522;27.456;2022-09-09T06:51:03;12.70;;;6.35;;
50249;SDS011;36133;42.522;27.456;2022-09-09T06:53:34;10.85;;;5.20;;
50249;SDS011;36133;42.522;27.456;2022-09-09T06:58:44;11.48;;;4.28;;
50249;SDS011;36133;42.522;27.456;2022-09-09T07:01:11;6.50;;;3.92;;
50249;SDS011;36133;42.522;27.456;2022-09-09T07:03:47;6.15;;;3.88;;
50249;SDS011;36133;42.522;27.456;2022-09-09T07:06:37;5.72;;;3.50;;
50249;SDS011;36133;42.522;27.456;2022-09-09T07:09:04;7.90;;;3.35;;
50249;SDS011;36133;42.522;27.456;2022-09-09T07:11:32;7.70;;;3.20;;
50249;SDS011;36133;42.522;27.456;2022-09-09T07:14:03;9.82;;;3.90;;
50249;SDS011;36133;42.522;27.456;2022-09-09T07:16:29;9.57;;;3.35;;
50249;SDS011;36133;42.522;27.456;2022-09-09T07:19:05;8.00;;;3.65;;
50249;SDS011;36133;42.522;27.456;2022-09-09T07:23:57;10.07;;;2.97;;
50249;SDS011;36133;42.522;27.456;2022-09-09T07:26:24;9.90;;;2.90;;
50249;SDS011;36133;42.522;27.456;2022-09-09T07:28:52;7.50;;;3.58;;
50249;SDS011;36133;42.522;27.456;2022-09-09T07:31:28;14.77;;;3.85;;
50249;SDS011;36133;42.522;27.456;2022-09-09T07:33:55;7.47;;;3.03;;
50249;SDS011;36133;42.522;27.456;2022-09-09T07:36:22;4.18;;;2.42;;
50249;SDS011;36133;42.522;27.456;2022-09-09T07:38:52;8.35;;;3.67;;
50249;SDS011;36133;42.522;27.456;2022-09-09T07:42:01;4.80;;;2.50;;
50249;SDS011;36133;42.522;27.456;2022-09-09T07:44:14;11.07;;;3.00;;
50249;SDS011;36133;42.522;27.456;2022-09-09T07:46:41;8.05;;;2.67;;
50249;SDS011;36133;42.522;27.456;2022-09-09T07:49:07;9.68;;;2.67;;
50249;SDS011;36133;42.522;27.456;2022-09-09T07:51:35;3.72;;;2.25;;
50249;SDS011;36133;42.522;27.456;2022-09-09T07:54:07;10.98;;;2.45;;
50249;SDS011;36133;42.522;27.456;2022-09-09T07:56:35;9.27;;;2.03;;
50249;SDS011;36133;42.522;27.456;2022-09-09T07:59:02;9.35;;;2.20;;
50249;SDS011;36133;42.522;27.456;2022-09-09T08:01:39;11.02;;;2.47;;
50249;SDS011;36133;42.522;27.456;2022-09-09T08:04:10;7.45;;;2.35;;
50249;SDS011;36133;42.522;27.456;2022-09-09T08:06:44;16.92;;;2.90;;
50249;SDS011;36133;42.522;27.456;2022-09-09T08:09:12;7.63;;;2.28;;
50249;SDS011;36133;42.522;27.456;2022-09-09T08:11:39;7.57;;;2.00;;
50249;SDS011;36133;42.522;27.456;2022-09-09T08:14:05;7.70;;;2.15;;
50249;SDS011;36133;42.522;27.456;2022-09-09T08:16:33;1.63;;;1.23;;
50249;SDS011;36133;42.522;27.456;2022-09-09T08:19:04;6.85;;;1.50;;
50249;SDS011;36133;42.522;27.456;2022-09-09T08:21:32;6.40;;;1.70;;
50249;SDS011;36133;42.522;27.456;2022-09-09T08:23:59;3.15;;;1.80;;
50249;SDS011;36133;42.522;27.456;2022-09-09T08:26:27;4.15;;;1.80;;
50249;SDS011;36133;42.522;27.456;2022-09-09T08:28:55;6.38;;;2.08;;
50249;SDS011;36133;42.522;27.456;2022-09-09T08:31:27;8.00;;;2.08;;
50249;SDS011;36133;42.522;27.456;2022-09-09T08:33:54;7.38;;;1.90;;
50249;SDS011;36133;42.522;27.456;2022-09-09T08:36:21;7.30;;;2.28;;
50249;SDS011;36133;42.522;27.456;2022-09-09T08:38:49;7.32;;;2.25;;
50249;SDS011;36133;42.522;27.456;2022-09-09T08:52:32;7.40;;;2.85;;
50249;SDS011;36133;42.522;27.456;2022-09-09T08:58:30;7.90;;;2.05;;
50249;SDS011;36133;42.522;27.456;2022-09-09T09:03:43;3.25;;;1.50;;
50249;SDS011;36133;42.522;27.456;2022-09-09T09:11:53;3.40;;;1.70;;
50249;SDS011;36133;42.522;27.456;2022-09-09T09:14:26;5.10;;;1.83;;
50249;SDS011;36133;42.522;27.456;2022-09-09T09:17:06;4.82;;;2.03;;
50249;SDS011;36133;42.522;27.456;2022-09-09T09:19:38;3.92;;;1.50;;
50249;SDS011;36133;42.522;27.456;2022-09-09T09:22:14;4.90;;;2.00;;
50249;SDS011;36133;42.522;27.456;2022-09-09T09:24:54;5.18;;;1.88;;
50249;SDS011;36133;42.522;27.456;2022-09-09T09:29:50;3.78;;;1.65;;
50249;SDS011;36133;42.522;27.456;2022-09-09T09:32:22;4.40;;;1.60;;
50249;SDS011;36133;42.522;27.456;2022-09-09T09:34:49;5.13;;;1.98;;
50249;SDS011;36133;42.522;27.456;2022-09-09T09:37:26;3.45;;;1.50;;
50249;SDS011;36133;42.522;27.456;2022-09-09T09:39:54;3.53;;;1.83;;
50249;SDS011;36133;42.522;27.456;2022-09-09T09:42:20;5.80;;;1.80;;
50249;SDS011;36133;42.522;27.456;2022-09-09T09:44:46;4.68;;;1.75;;
50249;SDS011;36133;42.522;27.456;2022-09-09T09:47:12;3.17;;;1.58;;
50249;SDS011;36133;42.522;27.456;2022-09-09T09:49:39;4.13;;;1.90;;
50249;SDS011;36133;42.522;27.456;2022-09-09T09:52:23;5.30;;;2.05;;
50249;SDS011;36133;42.522;27.456;2022-09-09T09:54:50;3.63;;;1.67;;
50249;SDS011;36133;42.522;27.456;2022-09-09T09:57:17;5.32;;;1.55;;
50249;SDS011;36133;42.522;27.456;2022-09-09T09:59:47;3.28;;;1.50;;
50249;SDS011;36133;42.522;27.456;2022-09-09T10:04:38;3.72;;;1.42;;
50249;SDS011;36133;42.522;27.456;2022-09-09T10:07:12;4.80;;;1.40;;
50249;SDS011;36133;42.522;27.456;2022-09-09T10:09:53;3.60;;;1.42;;
50249;SDS011;36133;42.522;27.456;2022-09-09T10:18:41;5.10;;;1.40;;
50249;SDS011;36133;42.522;27.456;2022-09-09T10:32:38;2.08;;;1.20;;
50249;SDS011;36133;42.522;27.456;2022-09-09T10:35:41;4.35;;;1.70;;
50249;SDS011;36133;42.522;27.456;2022-09-09T10:38:19;2.95;;;1.23;;
50249;SDS011;36133;42.522;27.456;2022-09-09T10:57:45;4.28;;;1.17;;
50249;SDS011;36133;42.522;27.456;2022-09-09T11:02:44;2.70;;;1.30;;
50249;SDS011;36133;42.522;27.456;2022-09-09T11:05:27;2.63;;;1.38;;
50249;SDS011;36133;42.522;27.456;2022-09-09T11:08:02;2.75;;;1.00;;
50249;SDS011;36133;42.522;27.456;2022-09-09T11:10:40;5.15;;;1.10;;
50249;SDS011;36133;42.522;27.456;2022-09-09T11:16:41;3.58;;;1.27;;
50249;SDS011;36133;42.522;27.456;2022-09-09T11:21:59;2.40;;;1.20;;
50249;SDS011;36133;42.522;27.456;2022-09-09T11:40:34;5.78;;;1.70;;
50249;SDS011;36133;42.522;27.456;2022-09-09T11:43:10;3.08;;;1.30;;
50249;SDS011;36133;42.522;27.456;2022-09-09T11:45:39;3.47;;;1.27;;
50249;SDS011;36133;42.522;27.456;2022-09-09T11:48:22;8.25;;;1.83;;
50249;SDS011;36133;42.522;27.456;2022-09-09T11:50:57;6.70;;;1.50;;
50249;SDS011;36133;42.522;27.456;2022-09-09T11:56:07;3.30;;;1.33;;
50249;SDS011;36133;42.522;27.456;2022-09-09T11:58:37;3.28;;;1.77;;
50249;SDS011;36133;42.522;27.456;2022-09-09T12:04:06;3.10;;;1.70;;
50249;SDS011;36133;42.522;27.456;2022-09-09T12:06:43;6.43;;;1.70;;
50249;SDS011;36133;42.522;27.456;2022-09-09T12:17:42;6.57;;;1.90;;
50249;SDS011;36133;42.522;27.456;2022-09-09T12:33:45;5.55;;;1.73;;
50249;SDS011;36133;42.522;27.456;2022-09-09T12:36:16;5.07;;;1.92;;
50249;SDS011;36133;42.522;27.456;2022-09-09T12:38:55;3.97;;;1.90;;
50249;SDS011;36133;42.522;27.456;2022-09-09T12:41:28;4.65;;;1.80;;
50249;SDS011;36133;42.522;27.456;2022-09-09T12:44:08;30.13;;;2.88;;
50249;SDS011;36133;42.522;27.456;2022-09-09T12:46:42;6.18;;;2.00;;
50249;SDS011;36133;42.522;27.456;2022-09-09T12:52:00;4.82;;;1.98;;
50249;SDS011;36133;42.522;27.456;2022-09-09T12:54:47;4.03;;;1.77;;
50249;SDS011;36133;42.522;27.456;2022-09-09T12:57:16;6.32;;;2.33;;
50249;SDS011;36133;42.522;27.456;2022-09-09T12:59:43;4.90;;;1.90;;
50249;SDS011;36133;42.522;27.456;2022-09-09T13:02:19;3.15;;;2.03;;
50249;SDS011;36133;42.522;27.456;2022-09-09T13:04:48;3.45;;;1.95;;
50249;SDS011;36133;42.522;27.456;2022-09-09T13:07:15;5.13;;;2.30;;
50249;SDS011;36133;42.522;27.456;2022-09-09T13:09:41;4.75;;;1.88;;
50249;SDS011;36133;42.522;27.456;2022-09-09T13:12:11;3.58;;;1.90;;
50249;SDS011;36133;42.522;27.456;2022-09-09T13:14:40;9.43;;;2.38;;
50249;SDS011;36133;42.522;27.456;2022-09-09T13:17:26;5.00;;;2.10;;
50249;SDS011;36133;42.522;27.456;2022-09-09T13:19:56;9.30;;;2.70;;
50249;SDS011;36133;42.522;27.456;2022-09-09T13:22:33;4.38;;;2.38;;
50249;SDS011;36133;42.522;27.456;2022-09-09T13:25:05;5.65;;;2.15;;
50249;SDS011;36133;42.522;27.456;2022-09-09T13:27:51;6.20;;;2.17;;
50249;SDS011;36133;42.522;27.456;2022-09-09T13:30:29;5.05;;;2.30;;
50249;SDS011;36133;42.522;27.456;2022-09-09T13:35:50;3.55;;;1.80;;
50249;SDS011;36133;42.522;27.456;2022-09-09T13:38:36;6.28;;;2.33;;
50249;SDS011;36133;42.522;27.456;2022-09-09T13:41:24;4.65;;;2.22;;
50249;SDS011;36133;42.522;27.456;2022-09-09T13:43:53;6.40;;;2.20;;
50249;SDS011;36133;42.522;27.456;2022-09-09T13:46:23;6.03;;;2.20;;
50249;SDS011;36133;42.522;27.456;2022-09-09T13:49:02;3.60;;;2.13;;
50249;SDS011;36133;42.522;27.456;2022-09-09T13:51:41;4.43;;;2.47;;
50249;SDS011;36133;42.522;27.456;2022-09-09T13:54:12;4.13;;;2.13;;
50249;SDS011;36133;42.522;27.456;2022-09-09T13:56:40;5.05;;;2.10;;
50249;SDS011;36133;42.522;27.456;2022-09-09T13:59:11;5.35;;;2.38;;
50249;SDS011;36133;42.522;27.456;2022-09-09T14:01:39;7.45;;;2.58;;
50249;SDS011;36133;42.522;27.456;2022-09-09T14:04:05;7.93;;;2.25;;
50249;SDS011;36133;42.522;27.456;2022-09-09T14:06:31;5.07;;;2.38;;
50249;SDS011;36133;42.522;27.456;2022-09-09T14:08:58;7.00;;;2.30;;
50249;SDS011;36133;42.522;27.456;2022-09-09T14:11:23;8.10;;;2.33;;
50249;SDS011;36133;42.522;27.456;2022-09-09T14:13:49;6.32;;;2.00;;
50249;SDS011;36133;42.522;27.456;2022-09-09T14:16:16;6.30;;;2.60;;
50249;SDS011;36133;42.522;27.456;2022-09-09T14:18:43;7.60;;;2.50;;
50249;SDS011;36133;42.522;27.456;2022-09-09T14:21:10;5.32;;;2.70;;
50249;SDS011;36133;42.522;27.456;2022-09-09T14:23:36;8.95;;;2.42;;
50249;SDS011;36133;42.522;27.456;2022-09-09T14:26:03;4.57;;;2.50;;
50249;SDS011;36133;42.522;27.456;2022-09-09T14:28:30;7.15;;;2.33;;
50249;SDS011;36133;42.522;27.456;2022-09-09T14:30:58;5.25;;;2.50;;
50249;SDS011;36133;42.522;27.456;2022-09-09T14:33:25;4.63;;;2.20;;
50249;SDS011;36133;42.522;27.456;2022-09-09T14:35:55;5.93;;;2.28;;
50249;SDS011;36133;42.522;27.456;2022-09-09T14:38:32;3.75;;;2.15;;
50249;SDS011;36133;42.522;27.456;2022-09-09T14:40:59;5.28;;;1.80;;
50249;SDS011;36133;42.522;27.456;2022-09-09T14:43:28;5.30;;;2.40;;
50249;SDS011;36133;42.522;27.456;2022-09-09T14:45:55;5.70;;;2.20;;
50249;SDS011;36133;42.522;27.456;2022-09-09T14:48:21;7.43;;;2.22;;
50249;SDS011;36133;42.522;27.456;2022-09-09T14:50:46;5.38;;;2.63;;
50249;SDS011;36133;42.522;27.456;2022-09-09T14:53:12;5.10;;;2.70;;
50249;SDS011;36133;42.522;27.456;2022-09-09T14:55:38;5.68;;;2.20;;
50249;SDS011;36133;42.522;27.456;2022-09-09T14:58:04;3.35;;;2.05;;
50249;SDS011;36133;42.522;27.456;2022-09-09T15:00:31;4.65;;;2.20;;
50249;SDS011;36133;42.522;27.456;2022-09-09T15:02:59;5.78;;;2.15;;
50249;SDS011;36133;42.522;27.456;2022-09-09T15:05:25;7.35;;;2.55;;
50249;SDS011;36133;42.522;27.456;2022-09-09T15:07:51;3.90;;;2.17;;
50249;SDS011;36133;42.522;27.456;2022-09-09T15:10:16;6.55;;;2.50;;
50249;SDS011;36133;42.522;27.456;2022-09-09T15:12:42;7.00;;;2.53;;
50249;SDS011;36133;42.522;27.456;2022-09-09T15:15:09;5.47;;;2.30;;
50249;SDS011;36133;42.522;27.456;2022-09-09T15:17:34;7.82;;;3.00;;
50249;SDS011;36133;42.522;27.456;2022-09-09T15:20:02;4.55;;;2.28;;
50249;SDS011;36133;42.522;27.456;2022-09-09T15:22:31;5.45;;;2.92;;
50249;SDS011;36133;42.522;27.456;2022-09-09T15:24:57;3.88;;;2.15;;
50249;SDS011;36133;42.522;27.456;2022-09-09T15:27:23;3.83;;;2.30;;
50249;SDS011;36133;42.522;27.456;2022-09-09T15:29:49;6.75;;;2.63;;
50249;SDS011;36133;42.522;27.456;2022-09-09T15:32:17;6.55;;;2.60;;
50249;SDS011;36133;42.522;27.456;2022-09-09T15:34:46;6.68;;;2.40;;
50249;SDS011;36133;42.522;27.456;2022-09-09T15:37:12;5.40;;;2.65;;
50249;SDS011;36133;42.522;27.456;2022-09-09T15:39:38;25.98;;;3.75;;
50249;SDS011;36133;42.522;27.456;2022-09-09T15:42:06;5.75;;;2.85;;
50249;SDS011;36133;42.522;27.456;2022-09-09T15:44:42;6.70;;;3.13;;
50249;SDS011;36133;42.522;27.456;2022-09-09T15:49:40;7.78;;;3.08;;
50249;SDS011;36133;42.522;27.456;2022-09-09T15:52:12;8.80;;;4.70;;
50249;SDS011;36133;42.522;27.456;2022-09-09T15:54:38;5.22;;;2.88;;
50249;SDS011;36133;42.522;27.456;2022-09-09T15:57:05;6.80;;;4.15;;
50249;SDS011;36133;42.522;27.456;2022-09-09T15:59:32;6.25;;;3.20;;
50249;SDS011;36133;42.522;27.456;2022-09-09T16:02:03;6.13;;;2.80;;
50249;SDS011;36133;42.522;27.456;2022-09-09T16:04:30;4.32;;;2.88;;
50249;SDS011;36133;42.522;27.456;2022-09-09T16:06:58;5.85;;;3.08;;
50249;SDS011;36133;42.522;27.456;2022-09-09T16:09:25;8.25;;;3.40;;
50249;SDS011;36133;42.522;27.456;2022-09-09T16:11:51;7.13;;;3.10;;
50249;SDS011;36133;42.522;27.456;2022-09-09T16:14:19;10.30;;;3.30;;
50249;SDS011;36133;42.522;27.456;2022-09-09T16:16:44;4.50;;;2.72;;
50249;SDS011;36133;42.522;27.456;2022-09-09T16:19:11;7.00;;;3.22;;
50249;SDS011;36133;42.522;27.456;2022-09-09T16:21:48;6.53;;;3.80;;
50249;SDS011;36133;42.522;27.456;2022-09-09T16:24:16;4.38;;;3.13;;
50249;SDS011;36133;42.522;27.456;2022-09-09T16:26:44;7.95;;;3.38;;
50249;SDS011;36133;42.522;27.456;2022-09-09T16:29:15;8.18;;;3.95;;
50249;SDS011;36133;42.522;27.456;2022-09-09T16:31:42;6.50;;;3.33;;
50249;SDS011;36133;42.522;27.456;2022-09-09T16:34:09;7.78;;;4.20;;
50249;SDS011;36133;42.522;27.456;2022-09-09T16:36:36;8.50;;;3.55;;
50249;SDS011;36133;42.522;27.456;2022-09-09T16:39:07;10.65;;;4.22;;
50249;SDS011;36133;42.522;27.456;2022-09-09T16:41:35;12.25;;;4.40;;
50249;SDS011;36133;42.522;27.456;2022-09-09T16:44:03;9.90;;;4.28;;
50249;SDS011;36133;42.522;27.456;2022-09-09T16:46:31;7.03;;;4.35;;
50249;SDS011;36133;42.522;27.456;2022-09-09T16:49:05;13.45;;;4.43;;
50249;SDS011;36133;42.522;27.456;2022-09-09T16:51:35;9.25;;;4.10;;
50249;SDS011;36133;42.522;27.456;2022-09-09T16:54:03;7.72;;;4.53;;
50249;SDS011;36133;42.522;27.456;2022-09-09T16:56:35;15.55;;;4.40;;
50249;SDS011;36133;42.522;27.456;2022-09-09T16:59:04;9.27;;;4.25;;
50249;SDS011;36133;42.522;27.456;2022-09-09T17:01:32;7.95;;;4.53;;
50249;SDS011;36133;42.522;27.456;2022-09-09T17:04:04;10.10;;;4.78;;
50249;SDS011;36133;42.522;27.456;2022-09-09T17:06:32;11.60;;;5.30;;
50249;SDS011;36133;42.522;27.456;2022-09-09T17:09:04;7.88;;;4.68;;
50249;SDS011;36133;42.522;27.456;2022-09-09T17:11:31;7.93;;;4.53;;
50249;SDS011;36133;42.522;27.456;2022-09-09T17:13:57;8.15;;;4.85;;
50249;SDS011;36133;42.522;27.456;2022-09-09T17:16:24;6.75;;;4.85;;
50249;SDS011;36133;42.522;27.456;2022-09-09T17:18:52;10.20;;;4.82;;
50249;SDS011;36133;42.522;27.456;2022-09-09T17:21:20;9.15;;;4.82;;
50249;SDS011;36133;42.522;27.456;2022-09-09T17:23:49;7.70;;;4.88;;
50249;SDS011;36133;42.522;27.456;2022-09-09T17:26:15;7.60;;;5.90;;
50249;SDS011;36133;42.522;27.456;2022-09-09T17:28:43;10.18;;;5.05;;
50249;SDS011;36133;42.522;27.456;2022-09-09T17:31:11;8.65;;;5.20;;
50249;SDS011;36133;42.522;27.456;2022-09-09T17:33:40;8.73;;;5.28;;
50249;SDS011;36133;42.522;27.456;2022-09-09T17:36:09;12.50;;;5.07;;
50249;SDS011;36133;42.522;27.456;2022-09-09T17:38:36;10.43;;;5.10;;
50249;SDS011;36133;42.522;27.456;2022-09-09T17:41:03;8.43;;;5.57;;
50249;SDS011;36133;42.522;27.456;2022-09-09T17:43:31;10.27;;;5.38;;
50249;SDS011;36133;42.522;27.456;2022-09-09T17:46:13;8.57;;;5.30;;
50249;SDS011;36133;42.522;27.456;2022-09-09T17:48:41;6.95;;;5.25;;
50249;SDS011;36133;42.522;27.456;2022-09-09T17:51:11;7.75;;;4.57;;
50249;SDS011;36133;42.522;27.456;2022-09-09T17:53:39;9.05;;;5.20;;
50249;SDS011;36133;42.522;27.456;2022-09-09T17:56:07;9.25;;;5.35;;
50249;SDS011;36133;42.522;27.456;2022-09-09T17:58:34;12.07;;;5.53;;